createdAt,value
2022-09-21T00:01:09.347Z,5.03
2022-09-21T00:03:37.827Z,5.30
2022-09-21T00:06:07.575Z,4.93
2022-09-21T00:08:36.240Z,3.10
2022-09-21T00:11:05.584Z,5.20
2022-09-21T00:13:37.853Z,4.80
2022-09-21T00:16:07.947Z,4.17
2022-09-21T00:18:36.991Z,4.50
2022-09-21T00:21:08.932Z,3.93
2022-09-21T00:23:37.886Z,4.80
2022-09-21T00:26:09.020Z,3.43
2022-09-21T00:28:40.216Z,5.07
2022-09-21T00:31:11.071Z,5.17
2022-09-21T00:33:39.244Z,3.77
2022-09-21T00:36:09.210Z,4.00
2022-09-21T00:38:38.396Z,5.30
2022-09-21T00:41:08.095Z,4.20
2022-09-21T00:43:41.135Z,4.80
2022-09-21T00:46:16.192Z,3.80
2022-09-21T00:48:46.923Z,7.53
2022-09-21T00:51:15.680Z,4.67
2022-09-21T00:53:44.176Z,3.70
2022-09-21T00:56:13.470Z,3.53
2022-09-21T00:58:47.571Z,5.20
2022-09-21T01:01:18.101Z,3.87
2022-09-21T01:03:47.594Z,3.77
2022-09-21T01:06:16.876Z,3.37
2022-09-21T01:08:47.694Z,3.10
2022-09-21T01:11:35.393Z,4.50
2022-09-21T01:14:25.307Z,3.20
2022-09-21T01:17:03.562Z,3.90
2022-09-21T01:19:49.304Z,3.70
2022-09-21T01:22:27.626Z,5.40
2022-09-21T01:25:09.302Z,3.30
2022-09-21T01:27:55.079Z,3.43
2022-09-21T01:30:25.772Z,2.77
2022-09-21T01:32:58.049Z,3.40
2022-09-21T01:35:29.816Z,3.53
2022-09-21T01:38:03.336Z,3.03
2022-09-21T01:40:35.993Z,5.70
2022-09-21T01:43:07.089Z,4.50
2022-09-21T01:45:41.297Z,3.93
2022-09-21T01:48:11.200Z,4.20
2022-09-21T01:50:42.831Z,3.50
2022-09-21T01:53:14.486Z,4.63
2022-09-21T01:55:46.125Z,3.97
2022-09-21T01:58:20.282Z,5.30
2022-09-21T02:00:55.224Z,3.77
2022-09-21T02:03:29.128Z,3.27
2022-09-21T02:05:58.245Z,3.23
2022-09-21T02:08:27.859Z,3.83
2022-09-21T02:10:56.875Z,3.03
2022-09-21T02:13:28.160Z,3.13
2022-09-21T02:16:07.597Z,4.13
2022-09-21T02:18:44.921Z,3.33
2022-09-21T02:21:24.347Z,3.40
2022-09-21T02:24:02.933Z,2.70
2022-09-21T02:26:36.114Z,2.90
2022-09-21T02:29:12.447Z,3.73
2022-09-21T02:31:50.644Z,3.17
2022-09-21T02:34:23.231Z,2.93
2022-09-21T02:36:56.948Z,2.73
2022-09-21T02:39:34.848Z,2.80
2022-09-21T02:42:07.707Z,2.40
2022-09-21T02:44:41.623Z,3.40
2022-09-21T02:47:17.773Z,3.70
2022-09-21T02:49:51.364Z,3.43
2022-09-21T02:52:20.716Z,4.07
2022-09-21T02:54:53.136Z,3.50
2022-09-21T02:57:23.803Z,7.10
2022-09-21T02:59:52.785Z,3.63
2022-09-21T03:02:22.334Z,3.20
2022-09-21T03:04:51.183Z,3.33
2022-09-21T03:07:19.480Z,3.00
2022-09-21T03:09:47.671Z,3.33
2022-09-21T03:12:15.913Z,3.77
2022-09-21T03:14:44.330Z,3.43
2022-09-21T03:17:12.443Z,3.70
2022-09-21T03:19:41.976Z,3.77
2022-09-21T03:22:10.188Z,6.47
2022-09-21T03:24:47.185Z,4.77
2022-09-21T03:27:16.358Z,2.93
2022-09-21T03:29:44.597Z,2.93
2022-09-21T03:32:13.863Z,3.10
2022-09-21T03:34:43.713Z,3.20
2022-09-21T03:37:12.108Z,4.37
2022-09-21T03:39:40.249Z,3.53
2022-09-21T03:42:10.003Z,4.67
2022-09-21T03:44:38.628Z,3.27
2022-09-21T03:47:07.696Z,3.00
2022-09-21T03:49:36.054Z,3.33
2022-09-21T03:52:06.013Z,4.07
2022-09-21T03:54:34.410Z,4.50
2022-09-21T03:57:02.675Z,5.87
2022-09-21T03:59:30.773Z,3.07
2022-09-21T04:01:58.989Z,3.20
2022-09-21T04:04:27.154Z,3.10
2022-09-21T04:06:55.305Z,3.20
2022-09-21T04:09:24.833Z,5.00
2022-09-21T04:11:53.897Z,4.20
2022-09-21T04:14:22.388Z,3.50
2022-09-21T04:16:50.958Z,4.70
2022-09-21T04:19:19.239Z,4.07
2022-09-21T04:21:47.425Z,7.73
2022-09-21T04:24:15.688Z,4.23
2022-09-21T04:26:45.285Z,4.50
2022-09-21T04:29:13.957Z,3.80
2022-09-21T04:31:42.635Z,5.63
2022-09-21T04:34:14.483Z,3.73
2022-09-21T04:36:42.607Z,4.33
2022-09-21T04:39:10.710Z,4.10
2022-09-21T04:41:38.810Z,4.40
2022-09-21T04:44:08.328Z,4.93
2022-09-21T04:46:36.485Z,3.50
2022-09-21T04:49:04.819Z,4.33
2022-09-21T04:51:32.917Z,3.60
2022-09-21T04:54:01.196Z,4.30
2022-09-21T04:56:29.444Z,2.93
2022-09-21T04:58:57.685Z,4.20
2022-09-21T05:01:27.902Z,4.50
2022-09-21T05:03:58.715Z,4.60
2022-09-21T05:06:26.817Z,5.13
2022-09-21T05:09:08.803Z,4.63
2022-09-21T05:11:36.838Z,6.17
2022-09-21T05:14:04.999Z,3.83
2022-09-21T05:16:34.480Z,4.23
2022-09-21T05:19:02.654Z,8.00
2022-09-21T05:21:31.663Z,4.10
2022-09-21T05:24:00.028Z,7.50
2022-09-21T05:26:28.169Z,6.27
2022-09-21T05:28:56.725Z,4.03
2022-09-21T05:31:41.173Z,4.43
2022-09-21T05:34:33.003Z,5.90
2022-09-21T05:37:08.576Z,5.17
2022-09-21T05:39:37.369Z,4.63
2022-09-21T05:42:06.542Z,4.83
2022-09-21T05:44:35.362Z,5.60
2022-09-21T05:47:12.291Z,5.33
2022-09-21T05:49:49.544Z,4.83
2022-09-21T05:52:24.701Z,5.93
2022-09-21T05:55:01.074Z,5.77
2022-09-21T05:57:39.601Z,4.93
2022-09-21T06:00:15.996Z,5.63
2022-09-21T06:03:10.819Z,5.33
2022-09-21T06:05:41.685Z,4.57
2022-09-21T06:08:09.938Z,4.40
2022-09-21T06:10:38.120Z,5.43
2022-09-21T06:13:06.291Z,4.30
2022-09-21T06:15:38.369Z,4.47
2022-09-21T06:18:08.091Z,5.00
2022-09-21T06:20:36.858Z,4.37
2022-09-21T06:23:06.260Z,4.40
2022-09-21T06:25:34.768Z,6.53
2022-09-21T06:28:04.517Z,5.53
2022-09-21T06:30:34.649Z,4.93
2022-09-21T06:33:03.661Z,5.03
2022-09-21T06:35:34.698Z,5.83
2022-09-21T06:38:04.685Z,6.87
2022-09-21T06:40:34.282Z,5.13
2022-09-21T06:43:03.852Z,5.50
2022-09-21T06:45:32.512Z,6.07
2022-09-21T06:48:00.719Z,9.37
2022-09-21T06:50:28.925Z,10.17
2022-09-21T06:53:02.579Z,5.87
2022-09-21T06:55:31.214Z,5.80
2022-09-21T06:58:02.949Z,7.77
2022-09-21T07:00:31.991Z,6.80
2022-09-21T07:03:00.164Z,6.10
2022-09-21T07:05:28.441Z,7.27
2022-09-21T07:08:00.422Z,8.00
2022-09-21T07:10:28.883Z,8.10
2022-09-21T07:12:57.091Z,8.90
2022-09-21T07:15:25.327Z,7.47
2022-09-21T07:18:05.068Z,6.70
2022-09-21T07:20:33.963Z,7.43
2022-09-21T07:23:11.391Z,9.50
2022-09-21T07:25:39.828Z,7.90
2022-09-21T07:28:08.256Z,8.07
2022-09-21T07:30:38.252Z,6.40
2022-09-21T07:33:07.075Z,10.07
2022-09-21T07:35:35.735Z,7.13
2022-09-21T07:38:08.190Z,4.70
2022-09-21T07:40:36.815Z,4.33
2022-09-21T07:43:04.887Z,7.57
2022-09-21T07:45:33.074Z,5.27
2022-09-21T07:48:04.756Z,5.10
2022-09-21T07:50:33.658Z,4.40
2022-09-21T07:53:01.936Z,5.47
2022-09-21T07:55:31.828Z,7.73
2022-09-21T07:58:17.520Z,6.20
2022-09-21T08:00:45.708Z,5.73
2022-09-21T08:03:13.823Z,5.87
2022-09-21T08:05:41.861Z,5.00
2022-09-21T08:08:10.367Z,5.03
2022-09-21T08:10:39.930Z,4.53
2022-09-21T08:13:07.980Z,4.77
2022-09-21T08:15:50.610Z,4.50
2022-09-21T08:18:18.803Z,4.27
2022-09-21T08:20:55.627Z,3.60
2022-09-21T08:23:23.946Z,3.17
2022-09-21T08:25:53.488Z,3.00
2022-09-21T08:28:21.572Z,3.67
2022-09-21T08:30:50.144Z,2.50
2022-09-21T08:33:18.243Z,2.83
2022-09-21T08:35:53.430Z,2.83
2022-09-21T08:38:21.620Z,2.10
2022-09-21T08:40:50.403Z,3.43
2022-09-21T08:43:29.516Z,2.10
2022-09-21T08:46:00.635Z,2.20
2022-09-21T08:48:36.630Z,1.50
2022-09-21T08:51:08.637Z,1.90
2022-09-21T08:53:40.039Z,1.73
2022-09-21T08:56:10.381Z,2.10
2022-09-21T08:58:41.161Z,2.40
2022-09-21T09:01:33.921Z,1.63
2022-09-21T09:04:23.586Z,3.17
2022-09-21T09:07:03.878Z,1.60
2022-09-21T09:09:57.840Z,3.00
2022-09-21T09:12:44.290Z,2.07
2022-09-21T09:15:35.531Z,1.80
2022-09-21T09:18:10.775Z,1.33
2022-09-21T09:20:42.157Z,2.70
2022-09-21T09:23:16.125Z,1.57
2022-09-21T09:25:46.203Z,1.33
2022-09-21T09:28:29.468Z,2.13
2022-09-21T09:31:04.903Z,1.50
2022-09-21T09:33:47.463Z,1.83
2022-09-21T09:36:15.645Z,1.50
2022-09-21T09:38:48.135Z,1.40
2022-09-21T09:41:38.928Z,5.33
2022-09-21T09:44:24.311Z,3.80
2022-09-21T09:47:05.525Z,1.50
2022-09-21T09:49:43.085Z,2.93
2022-09-21T09:52:14.664Z,3.17
2022-09-21T09:54:42.909Z,1.30
2022-09-21T09:57:12.013Z,2.40
2022-09-21T09:59:44.327Z,1.30
2022-09-21T10:02:23.432Z,1.57
2022-09-21T10:05:01.497Z,1.60
2022-09-21T10:07:36.558Z,3.13
2022-09-21T10:10:23.049Z,2.27
2022-09-21T10:12:53.480Z,2.50
2022-09-21T10:15:24.613Z,4.97
2022-09-21T10:18:15.896Z,1.60
2022-09-21T10:20:56.019Z,3.77
2022-09-21T10:23:24.738Z,1.20
2022-09-21T10:26:02.490Z,1.50
2022-09-21T10:28:31.362Z,1.50
2022-09-21T10:31:18.915Z,1.33
2022-09-21T10:33:53.146Z,2.00
2022-09-21T10:36:33.533Z,1.17
2022-09-21T10:39:20.979Z,2.70
2022-09-21T10:41:51.658Z,1.43
2022-09-21T10:44:21.214Z,1.63
2022-09-21T10:46:50.885Z,1.27
2022-09-21T10:49:25.500Z,1.80
2022-09-21T10:51:58.115Z,1.40
2022-09-21T10:54:31.401Z,1.30
2022-09-21T10:57:03.358Z,1.20
2022-09-21T10:59:33.278Z,1.50
2022-09-21T11:02:02.788Z,1.33
2022-09-21T11:04:43.522Z,1.10
2022-09-21T11:07:19.715Z,1.20
2022-09-21T11:09:55.561Z,2.30
2022-09-21T11:12:35.407Z,1.50
2022-09-21T11:15:15.438Z,1.90
2022-09-21T11:17:49.285Z,1.77
2022-09-21T11:20:29.161Z,1.87
2022-09-21T11:23:06.000Z,5.23
2022-09-21T11:25:42.296Z,1.73
2022-09-21T11:28:16.615Z,4.60
2022-09-21T11:30:57.334Z,2.80
2022-09-21T11:33:42.015Z,2.50
2022-09-21T11:36:18.643Z,1.67
2022-09-21T11:38:59.537Z,3.33
2022-09-21T11:41:43.107Z,1.23
2022-09-21T11:44:22.351Z,2.20
2022-09-21T11:47:00.410Z,1.27
2022-09-21T11:49:44.661Z,1.30
2022-09-21T11:52:24.708Z,1.37
2022-09-21T11:55:14.655Z,1.30
2022-09-21T11:57:54.210Z,1.50
2022-09-21T12:00:25.360Z,1.70
2022-09-21T12:03:22.087Z,1.03
2022-09-21T12:06:11.455Z,1.33
2022-09-21T12:09:01.752Z,1.00
2022-09-21T12:11:43.880Z,1.47
2022-09-21T12:14:22.836Z,0.90
2022-09-21T12:16:58.323Z,1.47
2022-09-21T12:19:35.585Z,1.23
2022-09-21T12:22:08.474Z,1.00
2022-09-21T12:24:41.373Z,1.00
2022-09-21T12:27:15.290Z,2.13
2022-09-21T12:29:47.794Z,1.70
2022-09-21T12:32:22.543Z,1.47
2022-09-21T12:34:56.647Z,1.97
2022-09-21T12:37:27.846Z,1.10
2022-09-21T12:40:04.087Z,1.73
2022-09-21T12:42:39.829Z,2.20
2022-09-21T12:45:15.911Z,2.10
2022-09-21T12:47:53.487Z,1.30
2022-09-21T12:50:26.940Z,1.00
2022-09-21T12:52:56.747Z,1.17
2022-09-21T12:55:45.551Z,1.13
2022-09-21T12:58:30.968Z,1.50
2022-09-21T13:01:06.539Z,4.33
2022-09-21T13:03:42.987Z,1.60
2022-09-21T13:06:35.742Z,1.03
2022-09-21T13:09:08.558Z,1.67
2022-09-21T13:11:52.573Z,2.57
2022-09-21T13:14:21.045Z,3.10
2022-09-21T13:16:57.629Z,1.03
2022-09-21T13:19:27.859Z,1.53
2022-09-21T13:22:15.994Z,2.00
2022-09-21T13:24:45.624Z,0.87
2022-09-21T13:27:16.025Z,6.17
2022-09-21T13:29:45.906Z,10.97
2022-09-21T13:32:25.555Z,1.63
2022-09-21T13:34:53.811Z,2.97
2022-09-21T13:37:29.328Z,2.83
2022-09-21T13:40:40.335Z,1.53
2022-09-21T13:43:48.283Z,1.30
2022-09-21T13:46:54.859Z,1.07
2022-09-21T13:49:40.068Z,0.80
2022-09-21T13:52:20.691Z,0.90
2022-09-21T13:54:52.059Z,1.00
2022-09-21T13:57:24.963Z,1.00
2022-09-21T14:00:28.514Z,1.13
2022-09-21T14:03:01.583Z,0.90
2022-09-21T14:05:34.643Z,1.27
2022-09-21T14:08:06.553Z,1.70
2022-09-21T14:10:38.622Z,1.30
2022-09-21T14:13:24.489Z,1.10
2022-09-21T14:15:53.953Z,1.10
2022-09-21T14:18:37.099Z,1.70
2022-09-21T14:21:18.426Z,3.13
2022-09-21T14:24:21.463Z,1.50
2022-09-21T14:27:03.596Z,1.40
2022-09-21T14:29:45.836Z,1.23
2022-09-21T14:32:21.170Z,0.90
2022-09-21T14:34:52.400Z,1.13
2022-09-21T14:37:29.006Z,1.37
2022-09-21T14:39:58.052Z,1.00
2022-09-21T14:42:29.928Z,1.00
2022-09-21T14:45:00.378Z,1.20
2022-09-21T14:47:42.996Z,1.30
2022-09-21T14:50:30.032Z,0.90
2022-09-21T14:53:28.186Z,3.83
2022-09-21T14:56:22.505Z,1.03
2022-09-21T14:59:03.095Z,1.00
2022-09-21T15:01:41.384Z,1.20
2022-09-21T15:04:50.171Z,1.27
2022-09-21T15:07:59.840Z,4.50
2022-09-21T15:10:51.796Z,5.33
2022-09-21T15:13:50.671Z,1.27
2022-09-21T15:16:35.931Z,0.90
2022-09-21T15:19:14.050Z,1.00
2022-09-21T15:21:45.227Z,0.90
2022-09-21T15:24:27.570Z,1.43
2022-09-21T15:27:05.465Z,1.00
2022-09-21T15:29:34.983Z,1.20
2022-09-21T15:32:03.408Z,1.37
2022-09-21T15:34:32.099Z,1.13
2022-09-21T15:37:17.007Z,1.10
2022-09-21T15:39:45.429Z,1.00
2022-09-21T15:42:22.634Z,1.33
2022-09-21T15:44:54.484Z,0.93
2022-09-21T15:47:26.120Z,1.00
2022-09-21T15:49:56.183Z,0.97
2022-09-21T15:52:31.540Z,0.80
2022-09-21T15:55:02.842Z,0.80
2022-09-21T15:57:39.071Z,0.93
2022-09-21T16:00:19.649Z,1.20
2022-09-21T16:03:17.482Z,1.60
2022-09-21T16:05:47.982Z,1.10
2022-09-21T16:08:30.660Z,0.80
2022-09-21T16:11:19.920Z,1.67
2022-09-21T16:14:06.567Z,1.00
2022-09-21T16:16:34.677Z,0.90
2022-09-21T16:19:02.664Z,0.80
2022-09-21T16:21:33.659Z,0.90
2022-09-21T16:24:17.997Z,1.37
2022-09-21T16:26:57.961Z,0.90
2022-09-21T16:29:29.388Z,0.90
2022-09-21T16:32:20.877Z,1.70
2022-09-21T16:34:51.231Z,1.03
2022-09-21T16:37:29.973Z,1.47
2022-09-21T16:40:00.664Z,2.60
2022-09-21T16:42:32.842Z,1.33
2022-09-21T16:45:02.031Z,0.90
2022-09-21T16:47:30.642Z,1.10
2022-09-21T16:50:01.574Z,0.80
2022-09-21T16:52:31.233Z,1.17
2022-09-21T16:55:01.215Z,1.20
2022-09-21T16:57:29.560Z,1.37
2022-09-21T16:59:58.107Z,0.80
2022-09-21T17:02:26.350Z,1.00
2022-09-21T17:04:54.523Z,1.00
2022-09-21T17:07:22.701Z,1.00
2022-09-21T17:09:51.343Z,2.97
2022-09-21T17:12:22.149Z,0.90
2022-09-21T17:14:51.790Z,0.90
2022-09-21T17:17:22.334Z,1.30
2022-09-21T17:19:52.136Z,0.87
2022-09-21T17:22:21.903Z,2.43
2022-09-21T17:24:52.527Z,1.00
2022-09-21T17:27:24.194Z,0.97
2022-09-21T17:29:53.953Z,1.42
2022-09-21T17:32:24.827Z,1.00
2022-09-21T17:34:59.754Z,1.80
2022-09-21T17:37:28.126Z,0.90
2022-09-21T17:39:56.319Z,1.27
2022-09-21T17:42:26.212Z,1.30
2022-09-21T17:45:03.361Z,1.20
2022-09-21T17:47:33.972Z,1.27
2022-09-21T17:50:16.805Z,1.27
2022-09-21T17:53:05.907Z,1.00
2022-09-21T17:55:34.688Z,1.30
2022-09-21T17:58:33.722Z,1.10
2022-09-21T18:01:07.501Z,1.43
2022-09-21T18:03:41.050Z,1.30
2022-09-21T18:06:10.503Z,1.20
2022-09-21T18:08:40.409Z,1.10
2022-09-21T18:11:22.024Z,2.47
2022-09-21T18:13:59.535Z,1.03
2022-09-21T18:16:34.144Z,2.47
2022-09-21T18:19:20.191Z,1.73
2022-09-21T18:21:53.547Z,1.33
2022-09-21T18:24:30.809Z,1.30
2022-09-21T18:27:00.809Z,2.07
2022-09-21T18:29:41.111Z,1.53
2022-09-21T18:32:41.068Z,1.47
2022-09-21T18:35:23.569Z,2.20
2022-09-21T18:38:04.042Z,1.40
2022-09-21T18:40:41.085Z,1.33
2022-09-21T18:43:22.737Z,1.00
2022-09-21T18:45:58.865Z,1.37
2022-09-21T18:48:40.613Z,1.33
2022-09-21T18:51:15.830Z,1.60
2022-09-21T18:53:48.497Z,1.80
2022-09-21T18:56:17.403Z,2.60
2022-09-21T18:58:46.629Z,1.60
2022-09-21T19:01:19.003Z,1.30
2022-09-21T19:03:48.408Z,1.40
2022-09-21T19:06:40.481Z,2.63
2022-09-21T19:09:18.664Z,1.43
2022-09-21T19:11:53.171Z,3.33
2022-09-21T19:14:28.128Z,1.30
2022-09-21T19:17:10.244Z,1.43
2022-09-21T19:19:46.157Z,1.80
2022-09-21T19:22:17.433Z,1.30
2022-09-21T19:24:57.040Z,1.73
2022-09-21T19:27:31.248Z,1.57
2022-09-21T19:30:06.047Z,2.07
2022-09-21T19:32:40.932Z,1.63
2022-09-21T19:35:24.147Z,1.30
2022-09-21T19:37:54.580Z,1.97
2022-09-21T19:40:26.741Z,2.00
2022-09-21T19:43:14.130Z,1.40
2022-09-21T19:46:04.386Z,2.80
2022-09-21T19:48:42.486Z,2.10
2022-09-21T19:51:16.836Z,2.77
2022-09-21T19:54:02.977Z,3.67
2022-09-21T19:56:54.735Z,3.30
2022-09-21T19:59:45.207Z,3.70
2022-09-21T20:02:15.751Z,4.90
2022-09-21T20:04:51.722Z,5.53
2022-09-21T20:07:30.038Z,3.90
2022-09-21T20:10:13.642Z,3.80
2022-09-21T20:12:50.417Z,4.33
2022-09-21T20:15:22.723Z,3.60
2022-09-21T20:17:54.798Z,4.50
2022-09-21T20:20:26.749Z,5.70
2022-09-21T20:22:55.687Z,5.53
2022-09-21T20:25:28.610Z,4.07
2022-09-21T20:27:58.238Z,4.67
2022-09-21T20:30:31.921Z,4.03
2022-09-21T20:33:03.535Z,4.80
2022-09-21T20:35:33.224Z,3.53
2022-09-21T20:38:02.799Z,4.90
2022-09-21T20:40:32.721Z,4.20
2022-09-21T20:43:01.812Z,4.97
2022-09-21T20:45:32.212Z,4.50
2022-09-21T20:48:13.031Z,5.10
2022-09-21T20:50:43.704Z,5.43
2022-09-21T20:53:12.556Z,4.93
2022-09-21T20:55:41.247Z,5.87
2022-09-21T20:58:12.705Z,6.70
2022-09-21T21:00:41.337Z,6.20
2022-09-21T21:03:09.442Z,5.27
2022-09-21T21:05:37.511Z,5.10
2022-09-21T21:08:07.681Z,4.80
2022-09-21T21:10:37.101Z,4.60
2022-09-21T21:13:05.587Z,4.13
2022-09-21T21:15:33.712Z,3.57
2022-09-21T21:18:01.777Z,6.30
2022-09-21T21:20:31.481Z,5.63
2022-09-21T21:23:00.251Z,3.50
2022-09-21T21:25:31.849Z,5.97
2022-09-21T21:27:59.927Z,4.80
2022-09-21T21:30:27.989Z,4.10
2022-09-21T21:32:56.782Z,5.67
2022-09-21T21:35:25.910Z,5.37
2022-09-21T21:37:54.148Z,3.70
2022-09-21T21:40:22.823Z,3.97
2022-09-21T21:42:52.327Z,4.07
2022-09-21T21:45:21.514Z,6.30
2022-09-21T21:47:49.714Z,3.40
2022-09-21T21:50:17.937Z,3.67
2022-09-21T21:52:46.114Z,3.00
2022-09-21T21:55:14.305Z,4.20
2022-09-21T21:57:42.335Z,3.23
2022-09-21T22:00:13.502Z,3.43
2022-09-21T22:02:41.641Z,3.73
2022-09-21T22:05:10.671Z,3.73
2022-09-21T22:07:40.106Z,3.70
2022-09-21T22:10:09.505Z,4.90
2022-09-21T22:12:37.670Z,3.20
2022-09-21T22:15:06.452Z,3.27
2022-09-21T22:17:35.873Z,4.40
2022-09-21T22:20:04.004Z,4.80
2022-09-21T22:22:32.191Z,3.13
2022-09-21T22:25:00.349Z,3.30
2022-09-21T22:27:28.464Z,3.63
2022-09-21T22:29:56.834Z,3.73
2022-09-21T22:32:25.017Z,8.03
2022-09-21T22:34:54.489Z,3.70
2022-09-21T22:37:22.620Z,3.50
2022-09-21T22:39:50.728Z,3.87
2022-09-21T22:42:18.755Z,3.37
2022-09-21T22:44:46.844Z,3.77
2022-09-21T22:47:15.047Z,5.60
2022-09-21T22:49:43.141Z,3.30
2022-09-21T22:52:12.588Z,2.97
2022-09-21T22:54:40.649Z,3.47
2022-09-21T22:57:08.691Z,3.00
2022-09-21T22:59:36.722Z,3.33
2022-09-21T23:02:05.854Z,4.73
2022-09-21T23:04:33.944Z,4.10
2022-09-21T23:07:01.967Z,3.10
2022-09-21T23:09:31.551Z,3.70
2022-09-21T23:11:59.698Z,4.13
2022-09-21T23:14:27.780Z,3.40
2022-09-21T23:16:55.848Z,4.57
2022-09-21T23:19:23.849Z,4.00
2022-09-21T23:21:52.866Z,4.27
2022-09-21T23:24:21.938Z,3.97
2022-09-21T23:26:51.788Z,3.40
2022-09-21T23:29:20.295Z,2.83
2022-09-21T23:31:48.463Z,3.00
2022-09-21T23:34:17.138Z,2.87
2022-09-21T23:36:45.782Z,2.40
2022-09-21T23:39:15.330Z,2.93
2022-09-21T23:41:43.851Z,3.70
2022-09-21T23:44:13.346Z,3.17
2022-09-21T23:46:42.086Z,3.53
2022-09-21T23:49:10.230Z,5.30
2022-09-21T23:51:38.780Z,3.33
2022-09-21T23:54:07.466Z,4.87
2022-09-21T23:56:35.829Z,3.27
2022-09-21T23:59:04.015Z,3.13
